Time;durP1;ratioP1;P1;durP2;ratioP2;P2;SDS_P1;SDS_P2;PMS_P1;PMS_P2;Temp;Humidity;BMP_temperature;BMP_pressure;BME280_temperature;BME280_humidity;BME280_pressure;Samples;Min_cycle;Max_cycle;Signal;HPM_P1;HPM_P2
2021/01/27 00:00:07;;;;;;;9.13;5.90;;;1.30;96.50;;;;;;6131697;29;21104;-56
2021/01/27 00:03:11;;;;;;;8.57;7.20;;;1.30;96.60;;;;;;6132127;28;20479;-56
2021/01/27 00:06:13;;;;;;;6.40;5.80;;;1.30;96.70;;;;;;6131490;29;20484;-56
2021/01/27 00:09:16;;;;;;;8.83;7.37;;;1.20;96.80;;;;;;6111948;29;20468;-57
2021/01/27 00:12:21;;;;;;;9.80;6.13;;;1.20;96.90;;;;;;6111701;29;20487;-57
2021/01/27 00:15:27;;;;;;;7.17;6.43;;;1.20;96.80;;;;;;6108497;29;20569;-56
2021/01/27 00:18:30;;;;;;;6.80;5.80;;;1.20;96.40;;;;;;6108016;29;20575;-55
2021/01/27 00:21:33;;;;;;;8.40;6.83;;;1.20;96.50;;;;;;6107532;29;20967;-56
2021/01/27 00:24:36;;;;;;;9.20;7.00;;;1.20;96.70;;;;;;6115329;29;20482;-55
2021/01/27 00:27:38;;;;;;;7.37;6.07;;;1.10;96.70;;;;;;6131238;29;20821;-56
2021/01/27 00:30:42;;;;;;;9.63;6.90;;;1.10;96.60;;;;;;6127324;28;20491;-55
2021/01/27 00:33:45;;;;;;;7.57;6.17;;;1.00;96.90;;;;;;6131381;29;20562;-55
2021/01/27 00:36:48;;;;;;;10.00;5.77;;;1.00;96.80;;;;;;6131169;29;20508;-56
2021/01/27 00:39:53;;;;;;;8.27;6.50;;;1.00;96.70;;;;;;6131401;29;20493;-56
2021/01/27 00:42:55;;;;;;;7.63;6.80;;;1.00;96.90;;;;;;6131160;29;20480;-56
2021/01/27 00:45:57;;;;;;;8.83;7.17;;;1.00;97.00;;;;;;6128568;29;20476;-56
2021/01/27 00:49:03;;;;;;;8.57;6.73;;;1.00;97.00;;;;;;6106864;29;20823;-56
2021/01/27 00:52:05;;;;;;;11.10;7.47;;;1.00;96.90;;;;;;6107205;29;20483;-56
2021/01/27 00:55:12;;;;;;;7.40;5.27;;;1.00;97.20;;;;;;6106320;29;20480;-58
2021/01/27 00:58:15;;;;;;;9.70;6.63;;;0.90;97.00;;;;;;6106244;29;20832;-58
2021/01/27 01:01:17;;;;;;;8.80;7.27;;;0.80;97.70;;;;;;6104876;29;21003;-58
2021/01/27 01:04:21;;;;;;;7.73;6.00;;;0.70;97.30;;;;;;6104938;29;20540;-58
2021/01/27 01:07:23;;;;;;;8.13;6.90;;;0.70;97.90;;;;;;6104937;29;21000;-58
2021/01/27 01:10:27;;;;;;;7.43;6.67;;;0.80;98.00;;;;;;6104998;29;20476;-58
2021/01/27 01:13:31;;;;;;;9.93;6.70;;;0.80;97.90;;;;;;6105091;29;20485;-57
2021/01/27 01:16:34;;;;;;;9.30;6.73;;;0.90;97.90;;;;;;6106386;29;20469;-57
2021/01/27 01:19:37;;;;;;;6.53;5.87;;;0.90;97.90;;;;;;6106417;29;20611;-57
2021/01/27 01:22:39;;;;;;;6.83;6.23;;;0.90;97.90;;;;;;6105715;29;20552;-57
2021/01/27 01:25:41;;;;;;;7.07;6.03;;;0.90;97.70;;;;;;6105245;29;20980;-57
2021/01/27 01:28:44;;;;;;;7.37;6.67;;;0.90;97.70;;;;;;6105792;29;20503;-57
2021/01/27 01:31:46;;;;;;;9.70;7.17;;;0.90;97.80;;;;;;6105737;29;20444;-57
2021/01/27 01:34:49;;;;;;;8.70;6.90;;;0.90;97.70;;;;;;6096358;29;20448;-57
2021/01/27 01:37:51;;;;;;;9.60;7.10;;;0.80;97.70;;;;;;6105673;29;20445;-57
2021/01/27 01:40:56;;;;;;;10.17;6.37;;;0.80;98.00;;;;;;6105232;29;20465;-57
2021/01/27 01:43:58;;;;;;;11.73;7.33;;;0.90;98.00;;;;;;6105494;29;20936;-57
2021/01/27 01:47:00;;;;;;;11.23;8.70;;;0.80;97.90;;;;;;6105577;29;20490;-57
2021/01/27 01:50:03;;;;;;;9.27;7.60;;;0.80;98.00;;;;;;6113008;28;20471;-57
2021/01/27 01:53:08;;;;;;;7.60;6.70;;;0.80;98.00;;;;;;6117897;29;20468;-57
2021/01/27 01:56:13;;;;;;;10.07;5.87;;;0.70;98.10;;;;;;6115312;28;20893;-57
2021/01/27 01:59:16;;;;;;;7.77;7.00;;;0.70;98.20;;;;;;6117145;29;20468;-57
2021/01/27 02:02:19;;;;;;;8.70;6.33;;;0.70;98.10;;;;;;6116360;28;20495;-57
2021/01/27 02:05:25;;;;;;;7.30;6.63;;;0.60;98.00;;;;;;6116071;29;20471;-57
2021/01/27 02:08:29;;;;;;;5.93;4.80;;;0.60;98.10;;;;;;6117532;28;20472;-56
2021/01/27 02:11:48;;;;;;;4.63;4.07;;;0.50;98.20;;;;;;6115076;29;20465;-56
2021/01/27 02:15:04;;;;;;;5.17;3.70;;;0.50;98.50;;;;;;6106441;29;20476;-57
2021/01/27 02:18:16;;;;;;;3.80;3.50;;;0.50;98.20;;;;;;6104699;29;20556;-57
2021/01/27 02:21:53;;;;;;;4.10;3.80;;;0.40;98.20;;;;;;6084291;29;618293;-56
2021/01/27 02:25:36;;;;;;;6.10;3.40;;;0.40;98.30;;;;;;6105910;29;20481;-55
2021/01/27 02:29:00;;;;;;;3.20;2.90;;;0.50;98.20;;;;;;6105880;29;20485;-55
2021/01/27 02:32:23;;;;;;;3.97;3.50;;;0.50;98.30;;;;;;6105671;29;20464;-55
2021/01/27 02:35:31;;;;;;;3.50;3.20;;;0.40;98.30;;;;;;6105579;29;20489;-57
2021/01/27 02:38:38;;;;;;;4.00;3.60;;;0.40;98.20;;;;;;6096345;29;20488;-57
2021/01/27 02:41:49;;;;;;;4.57;3.70;;;0.40;98.40;;;;;;6105615;29;20483;-57
2021/01/27 02:44:58;;;;;;;5.50;3.80;;;0.40;98.40;;;;;;6105530;29;20473;-57
2021/01/27 02:48:04;;;;;;;4.50;3.27;;;0.40;98.40;;;;;;6109799;29;20477;-57
2021/01/27 02:51:11;;;;;;;4.10;3.10;;;0.40;98.30;;;;;;6110900;29;20487;-57
2021/01/27 02:54:18;;;;;;;3.90;3.30;;;0.30;98.50;;;;;;6110281;29;20484;-57
2021/01/27 02:57:24;;;;;;;3.93;3.40;;;0.30;98.40;;;;;;6110182;29;20500;-57
2021/01/27 03:00:31;;;;;;;4.23;3.40;;;0.30;98.40;;;;;;6110094;29;20480;-57
2021/01/27 03:03:38;;;;;;;3.53;3.20;;;0.30;98.60;;;;;;6110015;29;20536;-57
2021/01/27 03:06:43;;;;;;;4.70;3.80;;;0.20;98.50;;;;;;6110022;29;20486;-57
2021/01/27 03:09:49;;;;;;;4.87;4.47;;;0.10;98.60;;;;;;6110102;29;20484;-57
2021/01/27 03:12:52;;;;;;;3.70;3.30;;;0.10;98.80;;;;;;6109880;29;20544;-57
2021/01/27 03:15:58;;;;;;;4.07;3.77;;;0.10;98.90;;;;;;6109844;29;20481;-57
2021/01/27 03:19:06;;;;;;;4.13;3.40;;;0.10;98.90;;;;;;6109543;29;20563;-57
2021/01/27 03:22:14;;;;;;;3.83;3.40;;;0.10;98.80;;;;;;6109621;29;20485;-57
2021/01/27 03:25:22;;;;;;;3.73;3.07;;;0.10;98.80;;;;;;6109682;29;20477;-57
2021/01/27 03:28:29;;;;;;;3.23;2.90;;;0.10;98.90;;;;;;6109495;29;21001;-57
2021/01/27 03:31:31;;;;;;;3.10;2.40;;;0.10;98.80;;;;;;6109341;29;20479;-57
2021/01/27 03:34:40;;;;;;;3.40;3.20;;;0.10;98.80;;;;;;6109670;29;20487;-57
2021/01/27 03:37:48;;;;;;;3.00;2.50;;;0.10;98.90;;;;;;6109750;29;20452;-57
2021/01/27 03:40:53;;;;;;;5.47;2.93;;;0.10;99.00;;;;;;6105095;29;20469;-57
2021/01/27 03:44:02;;;;;;;3.10;2.50;;;0.10;98.90;;;;;;6109674;29;20463;-57
2021/01/27 03:47:08;;;;;;;5.83;3.63;;;0.00;98.90;;;;;;6109041;29;20800;-56
2021/01/27 03:50:15;;;;;;;3.17;2.87;;;0.00;98.90;;;;;;6108841;29;20519;-56
2021/01/27 03:53:19;;;;;;;4.77;3.33;;;0.00;99.00;;;;;;6109165;29;20487;-56
2021/01/27 03:56:29;;;;;;;5.83;3.70;;;0.00;99.30;;;;;;6108706;29;20469;-56
2021/01/27 03:59:32;;;;;;;5.30;3.90;;;0.00;99.30;;;;;;6108670;29;20539;-55
2021/01/27 04:02:34;;;;;;;3.00;2.70;;;0.00;99.30;;;;;;6108732;29;20476;-56
2021/01/27 04:05:36;;;;;;;3.57;2.60;;;0.00;99.10;;;;;;6108876;29;20622;-55
2021/01/27 04:08:40;;;;;;;2.77;2.57;;;0.00;99.10;;;;;;6108412;29;20473;-55
2021/01/27 04:11:42;;;;;;;2.97;2.70;;;0.00;98.90;;;;;;6108833;29;20982;-56
2021/01/27 04:14:44;;;;;;;3.10;2.80;;;0.00;98.90;;;;;;6108754;29;20472;-56
2021/01/27 04:17:46;;;;;;;3.33;3.00;;;-0.10;98.90;;;;;;6109021;29;20481;-55
2021/01/27 04:20:49;;;;;;;3.10;2.30;;;-0.10;99.00;;;;;;6108074;29;20828;-55
2021/01/27 04:23:52;;;;;;;2.73;2.50;;;-0.10;98.90;;;;;;6108145;29;20980;-55
2021/01/27 04:26:54;;;;;;;3.70;3.30;;;-0.10;99.00;;;;;;6108470;29;20560;-54
2021/01/27 04:29:56;;;;;;;5.10;3.60;;;-0.20;99.00;;;;;;6108287;29;20564;-56
2021/01/27 04:33:00;;;;;;;4.67;2.77;;;-0.20;99.40;;;;;;6108279;29;20473;-56
2021/01/27 04:36:03;;;;;;;3.63;2.93;;;-0.20;99.10;;;;;;6108001;29;20477;-55
2021/01/27 04:39:06;;;;;;;3.47;3.27;;;-0.20;99.20;;;;;;6108188;29;20484;-55
2021/01/27 04:42:10;;;;;;;3.77;3.40;;;-0.30;99.30;;;;;;6108183;29;20476;-55
2021/01/27 04:45:13;;;;;;;4.23;3.53;;;-0.30;99.30;;;;;;6103597;29;20953;-55
2021/01/27 04:48:24;;;;;;;2.93;2.73;;;-0.20;99.40;;;;;;6107709;29;20822;-55
2021/01/27 04:51:37;;;;;;;3.10;2.80;;;-0.30;99.40;;;;;;6107910;29;20611;-56
2021/01/27 04:55:07;;;;;;;4.60;2.80;;;-0.20;99.40;;;;;;6107378;29;20477;-56
2021/01/27 04:58:18;;;;;;;2.90;2.60;;;-0.20;99.20;;;;;;6107434;29;20976;-57
2021/01/27 05:01:41;;;;;;;4.30;3.87;;;-0.20;99.00;;;;;;6107594;29;20487;-56
2021/01/27 05:04:55;;;;;;;5.57;5.17;;;-0.20;99.10;;;;;;6107548;29;20457;-58
2021/01/27 05:08:07;;;;;;;4.97;4.47;;;-0.20;99.00;;;;;;6107236;29;20496;-58
2021/01/27 05:11:14;;;;;;;2.90;2.70;;;-0.20;98.80;;;;;;6107011;29;20809;-57
2021/01/27 05:14:19;;;;;;;3.30;3.07;;;-0.30;98.80;;;;;;6106970;29;20469;-58
2021/01/27 05:17:21;;;;;;;3.30;3.10;;;-0.30;99.00;;;;;;6107392;29;20774;-57
2021/01/27 05:20:24;;;;;;;3.97;2.60;;;-0.30;99.30;;;;;;6106518;29;20481;-56
2021/01/27 05:23:26;;;;;;;3.00;2.80;;;-0.40;99.30;;;;;;6107068;29;20983;-57
2021/01/27 05:26:35;;;;;;;3.00;2.80;;;-0.30;99.40;;;;;;6106710;29;20976;-59
2021/01/27 05:29:41;;;;;;;3.97;2.50;;;-0.20;99.50;;;;;;6107079;29;20477;-59
2021/01/27 05:32:49;;;;;;;3.33;3.03;;;-0.30;99.70;;;;;;6107132;29;20476;-57
2021/01/27 05:36:05;;;;;;;5.17;3.57;;;-0.20;99.50;;;;;;6106912;29;20491;-57
2021/01/27 05:39:11;;;;;;;4.30;3.90;;;-0.20;99.80;;;;;;6106516;29;20473;-58
2021/01/27 05:42:27;;;;;;;3.60;3.30;;;-0.20;99.50;;;;;;6107117;29;20487;-58
2021/01/27 05:45:36;;;;;;;9.73;4.50;;;-0.20;99.50;;;;;;6106677;29;20477;-59
2021/01/27 05:48:45;;;;;;;4.77;3.60;;;-0.30;99.50;;;;;;6106477;29;20568;-58
2021/01/27 05:51:47;;;;;;;4.90;4.50;;;-0.30;99.60;;;;;;6106430;29;20567;-55
2021/01/27 05:54:50;;;;;;;4.67;3.93;;;-0.40;99.60;;;;;;6106088;29;20499;-56
2021/01/27 05:57:59;;;;;;;4.03;3.73;;;-0.40;99.70;;;;;;6106160;29;20480;-56
2021/01/27 06:01:22;;;;;;;4.07;3.37;;;-0.30;99.80;;;;;;6106410;29;20473;-58
2021/01/27 06:04:26;;;;;;;4.57;3.83;;;-0.30;99.80;;;;;;6106392;29;20562;-58
2021/01/27 06:07:28;;;;;;;4.70;4.30;;;-0.40;99.80;;;;;;6105955;29;20484;-58
2021/01/27 06:10:33;;;;;;;6.63;4.10;;;-0.40;99.90;;;;;;6105724;29;20491;-58
2021/01/27 06:13:36;;;;;;;4.10;3.70;;;-0.30;99.90;;;;;;6105779;29;20487;-56
2021/01/27 06:16:44;;;;;;;4.97;4.47;;;-0.30;99.90;;;;;;6105917;29;20476;-56
2021/01/27 06:20:04;;;;;;;6.43;5.07;;;-0.30;99.90;;;;;;6105675;29;20476;-57
2021/01/27 06:23:32;;;;;;;6.63;4.97;;;-0.30;99.90;;;;;;6105679;29;20810;-57
2021/01/27 06:27:06;;;;;;;5.17;4.60;;;-0.30;99.90;;;;;;6105720;29;20826;-56
2021/01/27 06:30:20;;;;;;;8.00;4.67;;;-0.30;99.90;;;;;;6089309;29;20552;-57
2021/01/27 06:34:00;;;;;;;13.30;8.17;;;-0.20;99.90;;;;;;6105553;29;20487;-57
2021/01/27 06:37:16;;;;;;;7.37;5.40;;;-0.20;99.90;;;;;;6094051;29;20477;-57
2021/01/27 06:40:36;;;;;;;5.67;5.17;;;-0.20;99.80;;;;;;6105390;29;20491;-57
2021/01/27 06:44:18;;;;;;;8.53;6.37;;;-0.20;99.70;;;;;;6105776;29;20972;-57
2021/01/27 06:47:41;;;;;;;5.93;5.07;;;-0.20;99.90;;;;;;6095571;29;20542;-56
2021/01/27 06:51:16;;;;;;;5.73;4.50;;;-0.10;99.90;;;;;;6104125;29;20473;-57
2021/01/27 06:54:43;;;;;;;7.73;5.50;;;-0.10;99.70;;;;;;6081275;29;20461;-58
2021/01/27 06:58:12;;;;;;;9.17;7.90;;;-0.10;99.70;;;;;;6105574;29;20473;-57
2021/01/27 07:02:04;;;;;;;10.57;9.57;;;-0.10;99.50;;;;;;6105481;29;20491;-58
2021/01/27 07:05:35;;;;;;;8.60;7.80;;;-0.10;99.40;;;;;;6061628;29;20567;-58
2021/01/27 07:09:04;;;;;;;8.47;7.73;;;-0.10;99.40;;;;;;6104857;29;20499;-57
2021/01/27 07:12:11;;;;;;;9.07;8.03;;;0.00;99.40;;;;;;6105341;29;20472;-57
2021/01/27 07:15:25;;;;;;;10.00;8.67;;;0.00;99.40;;;;;;6105192;29;20477;-57
2021/01/27 07:19:00;;;;;;;10.90;8.30;;;0.00;99.80;;;;;;6104769;29;20830;-57
2021/01/27 07:22:11;;;;;;;9.60;8.27;;;0.10;99.40;;;;;;6097905;29;20487;-58
2021/01/27 07:25:18;;;;;;;20.47;8.90;;;0.10;99.40;;;;;;6104869;29;20477;-57
2021/01/27 07:28:28;;;;;;;18.73;8.33;;;0.10;99.50;;;;;;6104924;29;20481;-57
2021/01/27 07:31:35;;;;;;;9.67;7.93;;;0.20;99.40;;;;;;6105144;29;20495;-57
2021/01/27 07:35:00;;;;;;;11.03;7.13;;;0.20;99.20;;;;;;6109017;29;20828;-57
2021/01/27 07:38:09;;;;;;;9.07;7.10;;;0.20;99.10;;;;;;6109268;29;20475;-57
2021/01/27 07:41:18;;;;;;;7.67;6.87;;;0.20;99.20;;;;;;6108651;29;20468;-57
2021/01/27 07:44:21;;;;;;;7.83;7.03;;;0.30;99.60;;;;;;6115099;29;20483;-58
2021/01/27 07:48:02;;;;;;;7.77;6.83;;;0.40;99.00;;;;;;6114792;29;20476;-58
2021/01/27 07:51:10;;;;;;;11.17;7.00;;;0.60;98.70;;;;;;6040457;29;20586;-57
2021/01/27 07:54:21;;;;;;;7.80;6.23;;;0.70;98.40;;;;;;6108196;29;20471;-58
2021/01/27 07:57:33;;;;;;;7.00;6.27;;;0.90;98.20;;;;;;6104024;29;20484;-58
2021/01/27 08:00:41;;;;;;;9.50;6.57;;;1.20;98.00;;;;;;6116337;29;20486;-58
2021/01/27 08:03:54;;;;;;;8.07;5.83;;;1.40;97.50;;;;;;6131978;29;20527;-57
2021/01/27 08:06:57;;;;;;;12.40;7.20;;;1.60;97.30;;;;;;6131548;28;20472;-57
2021/01/27 08:10:09;;;;;;;9.30;6.70;;;1.90;96.90;;;;;;6131298;29;20479;-57
2021/01/27 08:13:33;;;;;;;8.57;6.20;;;2.10;96.20;;;;;;6131397;28;20906;-58
2021/01/27 08:16:38;;;;;;;7.03;6.27;;;2.20;95.40;;;;;;6131483;29;20486;-58
2021/01/27 08:19:41;;;;;;;7.70;6.90;;;2.40;95.10;;;;;;6107447;29;20515;-59
2021/01/27 08:22:51;;;;;;;6.87;6.17;;;2.50;94.40;;;;;;6107367;29;20972;-58
2021/01/27 08:25:57;;;;;;;8.50;6.80;;;2.70;94.10;;;;;;6107552;29;20476;-58
2021/01/27 08:29:07;;;;;;;9.70;6.10;;;2.90;94.00;;;;;;6107599;29;20503;-58
2021/01/27 08:32:28;;;;;;;7.90;5.50;;;3.20;93.20;;;;;;6107479;29;20483;-58
2021/01/27 08:35:59;;;;;;;7.93;5.80;;;3.40;92.90;;;;;;6107929;29;20556;-58
2021/01/27 08:39:07;;;;;;;5.20;4.50;;;3.60;92.10;;;;;;6107521;29;20484;-58
2021/01/27 08:42:24;;;;;;;6.50;4.80;;;3.90;90.90;;;;;;6107728;29;20473;-58
2021/01/27 08:45:29;;;;;;;5.33;4.37;;;4.10;90.00;;;;;;6106733;29;20477;-57
2021/01/27 08:48:50;;;;;;;4.60;3.90;;;4.40;89.00;;;;;;6107171;29;20825;-57
2021/01/27 08:51:52;;;;;;;7.67;4.87;;;4.50;86.60;;;;;;6116336;29;20476;-57
2021/01/27 08:54:55;;;;;;;4.57;3.83;;;4.50;85.60;;;;;;6130766;29;20484;-57
2021/01/27 08:58:37;;;;;;;4.47;4.07;;;4.60;85.20;;;;;;6130409;29;20495;-58
2021/01/27 09:01:55;;;;;;;6.17;4.63;;;4.80;84.30;;;;;;6035519;29;20988;-57
2021/01/27 09:04:57;;;;;;;6.13;5.10;;;4.90;84.40;;;;;;6040901;29;20482;-58
2021/01/27 09:08:03;;;;;;;6.50;4.73;;;5.00;82.60;;;;;;6130610;29;20507;-58
2021/01/27 09:11:08;;;;;;;5.00;4.57;;;5.00;82.60;;;;;;6113143;28;20478;-57
2021/01/27 09:14:15;;;;;;;6.30;4.33;;;5.10;81.20;;;;;;6129609;28;20467;-58
2021/01/27 09:17:18;;;;;;;6.40;4.73;;;5.30;81.30;;;;;;6129669;28;20539;-57
2021/01/27 09:20:24;;;;;;;5.00;4.60;;;5.30;80.80;;;;;;6129742;29;20476;-58
2021/01/27 09:23:26;;;;;;;5.80;5.10;;;5.50;80.30;;;;;;6129792;29;20958;-58
2021/01/27 09:26:41;;;;;;;8.83;5.20;;;5.70;80.20;;;;;;6130206;29;20487;-57
2021/01/27 09:29:45;;;;;;;5.10;4.00;;;5.80;78.50;;;;;;6130441;29;20480;-58
2021/01/27 09:32:47;;;;;;;7.60;4.50;;;5.90;76.80;;;;;;6130137;29;20491;-58
2021/01/27 09:36:01;;;;;;;6.23;4.50;;;6.10;75.80;;;;;;6129877;29;20823;-58
2021/01/27 09:39:04;;;;;;;7.77;4.80;;;6.20;75.10;;;;;;6129993;29;20571;-56
2021/01/27 09:42:17;;;;;;;7.80;4.50;;;6.30;75.00;;;;;;6129950;29;20483;-57
2021/01/27 09:45:27;;;;;;;7.20;3.93;;;6.40;74.60;;;;;;6122770;29;20476;-57
2021/01/27 09:48:38;;;;;;;6.30;4.13;;;6.70;73.10;;;;;;6106401;29;20485;-57
2021/01/27 09:51:43;;;;;;;5.87;4.40;;;6.60;72.20;;;;;;6113295;29;20956;-57
2021/01/27 09:54:49;;;;;;;7.40;4.90;;;6.50;72.10;;;;;;6129061;29;20963;-57
2021/01/27 09:57:53;;;;;;;9.43;4.97;;;6.70;72.70;;;;;;6129608;28;20487;-57
2021/01/27 10:01:01;;;;;;;10.27;6.33;;;7.00;72.60;;;;;;6129908;29;20472;-57
2021/01/27 10:04:09;;;;;;;12.47;6.40;;;7.30;71.90;;;;;;6129546;28;21015;-57
2021/01/27 10:07:19;;;;;;;6.60;4.73;;;7.80;70.50;;;;;;6120684;29;20559;-57
2021/01/27 10:10:24;;;;;;;6.93;5.53;;;7.90;67.10;;;;;;6128667;28;20486;-57
2021/01/27 10:13:31;;;;;;;10.77;6.70;;;8.00;67.60;;;;;;6129034;28;20468;-57
2021/01/27 10:16:52;;;;;;;6.13;5.53;;;8.10;66.80;;;;;;6129194;28;20934;-58
2021/01/27 10:20:07;;;;;;;18.17;7.60;;;8.00;66.40;;;;;;6128690;28;20551;-59
2021/01/27 10:23:11;;;;;;;8.87;4.60;;;8.00;65.80;;;;;;6129206;28;20475;-57
2021/01/27 10:26:42;;;;;;;8.53;6.83;;;9.10;64.00;;;;;;6129182;28;20467;-61
2021/01/27 10:29:44;;;;;;;7.13;5.77;;;11.60;58.90;;;;;;6095647;28;20468;-58
2021/01/27 10:32:47;;;;;;;7.30;4.97;;;14.50;50.60;;;;;;6128769;28;20481;-59
2021/01/27 10:35:53;;;;;;;7.27;5.70;;;16.50;44.30;;;;;;6129023;28;20534;-60
2021/01/27 10:39:14;;;;;;;8.07;5.53;;;18.60;38.70;;;;;;6128666;28;20980;-59
2021/01/27 10:42:25;;;;;;;7.80;5.90;;;20.80;34.60;;;;;;6128391;28;20802;-59
2021/01/27 10:45:37;;;;;;;7.37;4.50;;;21.30;30.50;;;;;;6119952;29;20228;-59
2021/01/27 10:48:43;;;;;;;5.83;4.23;;;20.40;29.60;;;;;;6105297;29;20488;-59
2021/01/27 10:51:46;;;;;;;9.80;4.70;;;19.70;29.90;;;;;;6113515;29;20242;-60
2021/01/27 10:54:52;;;;;;;5.53;3.87;;;17.60;30.20;;;;;;6128491;29;20534;-59
2021/01/27 10:58:02;;;;;;;5.10;3.63;;;16.30;30.90;;;;;;6128786;29;20482;-58
2021/01/27 11:01:04;;;;;;;19.20;7.33;;;14.90;32.90;;;;;;6128526;29;20490;-59
2021/01/27 11:04:07;;;;;;;14.07;5.10;;;14.40;35.50;;;;;;6128601;29;20479;-59
2021/01/27 11:07:10;;;;;;;3.93;3.00;;;14.10;34.70;;;;;;6130186;29;20480;-60
2021/01/27 11:10:13;;;;;;;5.53;3.80;;;13.80;33.20;;;;;;6128371;29;20491;-59
2021/01/27 11:13:16;;;;;;;5.57;2.30;;;13.70;34.00;;;;;;6132952;28;20479;-59
2021/01/27 11:16:20;;;;;;;3.83;2.60;;;13.40;34.50;;;;;;6132972;29;20476;-57
2021/01/27 11:19:24;;;;;;;3.13;2.50;;;13.60;34.80;;;;;;6132805;29;20471;-57
2021/01/27 11:22:26;;;;;;;5.57;3.27;;;13.70;34.00;;;;;;6132766;29;20983;-58
2021/01/27 11:25:29;;;;;;;4.40;2.87;;;13.50;34.40;;;;;;6132869;29;20483;-58
2021/01/27 11:28:32;;;;;;;6.67;3.97;;;13.20;36.00;;;;;;6132600;29;20479;-59
2021/01/27 11:31:34;;;;;;;4.37;2.77;;;13.10;35.60;;;;;;6132771;29;21021;-61
2021/01/27 11:34:38;;;;;;;4.17;3.47;;;13.10;35.30;;;;;;6132539;29;20487;-59
2021/01/27 11:37:40;;;;;;;5.47;3.00;;;13.90;35.20;;;;;;6132682;28;20483;-59
2021/01/27 11:40:43;;;;;;;6.03;3.27;;;15.20;35.00;;;;;;6132181;29;20486;-56
2021/01/27 11:43:46;;;;;;;4.23;3.23;;;17.40;32.00;;;;;;6119955;28;20453;-57
2021/01/27 11:46:49;;;;;;;8.37;3.37;;;19.80;30.50;;;;;;6119485;28;20763;-57
2021/01/27 11:49:54;;;;;;;4.10;3.00;;;22.10;27.50;;;;;;6129983;28;20310;-58
2021/01/27 11:52:57;;;;;;;4.47;3.97;;;24.50;25.80;;;;;;6114444;29;20209;-58
2021/01/27 11:55:59;;;;;;;7.93;4.03;;;25.90;23.90;;;;;;6108439;29;20268;-58
2021/01/27 11:59:02;;;;;;;5.10;4.57;;;26.90;23.10;;;;;;6108489;29;20251;-58
2021/01/27 12:02:05;;;;;;;5.07;4.07;;;27.90;21.90;;;;;;6108736;29;20212;-58
2021/01/27 12:05:10;;;;;;;3.60;2.37;;;29.20;21.10;;;;;;6108553;29;20235;-57
2021/01/27 12:08:15;;;;;;;4.70;3.03;;;29.80;19.20;;;;;;6108060;29;20240;-61
2021/01/27 12:11:17;;;;;;;2.90;2.07;;;29.60;18.70;;;;;;6119368;28;20228;-61
2021/01/27 12:14:21;;;;;;;6.73;2.80;;;29.70;18.20;;;;;;6118893;29;20226;-57
2021/01/27 12:17:24;;;;;;;1.90;1.60;;;29.20;18.70;;;;;;6107950;29;20242;-60
2021/01/27 12:20:27;;;;;;;5.03;1.80;;;30.50;17.50;;;;;;6107672;29;20232;-64
2021/01/27 12:23:31;;;;;;;1.87;1.33;;;30.60;17.00;;;;;;6107803;29;20567;-60
2021/01/27 12:26:33;;;;;;;4.23;2.03;;;29.60;17.50;;;;;;6107920;29;20675;-60
2021/01/27 12:29:35;;;;;;;2.40;1.97;;;28.80;18.10;;;;;;6107752;29;20256;-60
2021/01/27 12:32:41;;;;;;;3.37;1.43;;;28.80;17.50;;;;;;6107846;29;20235;-59
2021/01/27 12:35:44;;;;;;;13.17;3.07;;;28.40;17.60;;;;;;6108061;29;20232;-60
2021/01/27 12:38:47;;;;;;;3.17;2.60;;;28.50;17.90;;;;;;6107840;29;20235;-60
2021/01/27 12:41:50;;;;;;;3.07;2.63;;;27.20;19.00;;;;;;6107602;29;20227;-61
2021/01/27 12:44:52;;;;;;;12.87;3.70;;;28.60;18.50;;;;;;6116945;29;20298;-61
2021/01/27 12:47:55;;;;;;;2.70;2.40;;;28.90;17.90;;;;;;6105308;29;20228;-59
2021/01/27 12:50:59;;;;;;;4.70;2.80;;;30.10;16.70;;;;;;6107079;29;20323;-59
2021/01/27 12:54:04;;;;;;;3.23;2.50;;;30.80;17.00;;;;;;6128632;28;20235;-58
2021/01/27 12:57:08;;;;;;;3.83;2.83;;;32.20;16.20;;;;;;6128777;29;20230;-59
2021/01/27 13:00:13;;;;;;;3.33;2.93;;;31.70;16.40;;;;;;6117964;29;20237;-57
2021/01/27 13:03:16;;;;;;;5.93;2.80;;;32.40;16.20;;;;;;6109931;29;20246;-59
2021/01/27 13:06:19;;;;;;;3.50;3.20;;;31.60;16.00;;;;;;6105043;29;20236;-59
2021/01/27 13:09:21;;;;;;;3.90;2.80;;;30.40;16.40;;;;;;6104895;29;20232;-59
2021/01/27 13:12:24;;;;;;;5.07;2.30;;;30.30;16.70;;;;;;6105195;29;20248;-58
2021/01/27 13:15:27;;;;;;;5.87;2.57;;;29.90;17.10;;;;;;6104865;29;20236;-57
2021/01/27 13:18:29;;;;;;;2.70;2.50;;;30.70;16.70;;;;;;6095934;29;20246;-57
2021/01/27 13:21:32;;;;;;;2.40;2.20;;;30.00;16.40;;;;;;6104131;29;20244;-57
2021/01/27 13:24:34;;;;;;;4.90;2.50;;;29.50;16.30;;;;;;6104481;29;20733;-59
2021/01/27 13:27:40;;;;;;;2.83;2.50;;;27.00;17.60;;;;;;6104359;29;20242;-58
2021/01/27 13:30:42;;;;;;;3.30;2.60;;;26.60;17.90;;;;;;6103619;29;20237;-60
2021/01/27 13:33:44;;;;;;;2.70;2.50;;;26.70;17.70;;;;;;6104314;29;20236;-56
2021/01/27 13:36:47;;;;;;;2.73;2.53;;;26.80;17.50;;;;;;6104328;29;20554;-58
2021/01/27 13:39:49;;;;;;;4.80;2.43;;;24.90;18.40;;;;;;6104116;29;20583;-59
2021/01/27 13:42:52;;;;;;;2.33;2.10;;;25.80;18.90;;;;;;6104148;29;20250;-58
2021/01/27 13:45:54;;;;;;;3.43;1.93;;;27.00;18.10;;;;;;6119964;28;20715;-59
2021/01/27 13:48:56;;;;;;;4.43;2.80;;;27.70;17.60;;;;;;6105700;29;20240;-57
2021/01/27 13:52:00;;;;;;;2.87;2.57;;;28.20;17.70;;;;;;6113768;29;20730;-58
2021/01/27 13:55:02;;;;;;;3.87;3.10;;;28.10;17.00;;;;;;6127320;29;20235;-59
2021/01/27 13:58:04;;;;;;;4.77;2.93;;;27.40;17.30;;;;;;6127341;29;20246;-57
2021/01/27 14:01:06;;;;;;;4.40;3.43;;;27.00;17.50;;;;;;6127156;29;20235;-59
2021/01/27 14:04:08;;;;;;;3.50;2.40;;;26.20;17.60;;;;;;6126949;29;20321;-60
2021/01/27 14:07:11;;;;;;;2.73;2.27;;;24.30;18.60;;;;;;6126892;29;20278;-57
2021/01/27 14:10:16;;;;;;;3.03;2.70;;;23.80;19.30;;;;;;6127636;29;20240;-59
2021/01/27 14:13:19;;;;;;;3.70;2.23;;;23.90;19.30;;;;;;6117613;28;20225;-58
2021/01/27 14:16:21;;;;;;;3.60;2.67;;;23.90;19.30;;;;;;6117860;29;20672;-58
2021/01/27 14:19:23;;;;;;;2.70;2.33;;;23.70;19.20;;;;;;6128191;28;20315;-57
2021/01/27 14:22:27;;;;;;;6.53;2.50;;;23.00;19.60;;;;;;6103084;28;20245;-56
2021/01/27 14:25:32;;;;;;;2.80;2.20;;;21.50;20.30;;;;;;6112405;29;20243;-57
2021/01/27 14:28:34;;;;;;;3.43;2.40;;;19.50;21.20;;;;;;6112736;29;20236;-58
2021/01/27 14:31:37;;;;;;;4.77;2.43;;;17.40;22.80;;;;;;6109906;29;20483;-59
2021/01/27 14:34:39;;;;;;;2.90;2.43;;;15.70;23.90;;;;;;6104958;29;20481;-57
2021/01/27 14:37:43;;;;;;;2.83;2.53;;;14.60;25.10;;;;;;6104887;29;20517;-59
2021/01/27 14:40:46;;;;;;;4.40;3.17;;;13.50;26.60;;;;;;6105543;29;20485;-55
2021/01/27 14:43:48;;;;;;;4.13;3.37;;;12.30;27.90;;;;;;6115854;28;20478;-55
2021/01/27 14:46:51;;;;;;;2.63;1.90;;;11.70;29.10;;;;;;6115415;29;20463;-56
2021/01/27 14:49:54;;;;;;;3.90;2.77;;;11.10;30.80;;;;;;6109707;29;20656;-54
2021/01/27 14:52:57;;;;;;;5.13;2.93;;;10.60;31.10;;;;;;6126886;29;20983;-55
2021/01/27 14:56:00;;;;;;;8.27;2.30;;;10.20;31.60;;;;;;6133473;29;20452;-57
2021/01/27 14:59:02;;;;;;;6.30;3.03;;;9.80;33.00;;;;;;6133063;29;20478;-58
2021/01/27 15:02:05;;;;;;;4.40;2.90;;;9.40;34.00;;;;;;6133012;29;20522;-57
2021/01/27 15:05:08;;;;;;;4.07;2.90;;;9.10;34.80;;;;;;6132778;29;20503;-58
2021/01/27 15:08:12;;;;;;;8.10;4.70;;;8.70;35.50;;;;;;6132864;29;20459;-57
2021/01/27 15:11:14;;;;;;;4.77;2.77;;;8.40;36.10;;;;;;6132205;29;20472;-57
2021/01/27 15:14:16;;;;;;;6.53;2.53;;;8.30;36.50;;;;;;6132949;29;20971;-57
2021/01/27 15:17:19;;;;;;;3.20;2.40;;;8.10;36.40;;;;;;6132677;29;20563;-56
2021/01/27 15:20:23;;;;;;;7.60;4.27;;;8.10;36.30;;;;;;6132503;29;20471;-56
2021/01/27 15:23:28;;;;;;;5.33;4.00;;;8.00;37.10;;;;;;6128267;29;20607;-55
2021/01/27 15:26:31;;;;;;;5.07;4.17;;;7.90;37.10;;;;;;6111590;29;20468;-54
2021/01/27 15:29:33;;;;;;;7.00;4.10;;;7.70;37.50;;;;;;6117624;29;20477;-55
2021/01/27 15:32:37;;;;;;;9.30;4.87;;;7.60;38.00;;;;;;6119735;29;20471;-55
2021/01/27 15:35:39;;;;;;;7.70;5.20;;;7.50;38.20;;;;;;6115951;29;20555;-55
2021/01/27 15:38:43;;;;;;;15.40;9.37;;;7.30;39.30;;;;;;6121937;28;20476;-54
2021/01/27 15:41:45;;;;;;;14.10;8.17;;;7.30;39.20;;;;;;6132539;28;20475;-54
2021/01/27 15:44:49;;;;;;;31.53;28.23;;;7.20;39.60;;;;;;6128238;29;20467;-55
2021/01/27 15:47:52;;;;;;;14.30;10.37;;;7.20;40.20;;;;;;6121716;29;20486;-55
2021/01/27 15:50:54;;;;;;;12.97;8.90;;;7.10;40.80;;;;;;6126317;29;20495;-55
2021/01/27 15:53:57;;;;;;;14.93;8.30;;;7.10;40.80;;;;;;6108610;29;20980;-54
2021/01/27 15:57:00;;;;;;;15.50;7.03;;;7.10;41.20;;;;;;6128869;29;20471;-55
2021/01/27 16:00:07;;;;;;;10.73;6.37;;;7.00;42.50;;;;;;6129034;28;20483;-55
2021/01/27 16:03:09;;;;;;;7.70;5.50;;;6.90;42.50;;;;;;6131566;28;20471;-56
2021/01/27 16:06:12;;;;;;;12.17;8.23;;;6.80;43.40;;;;;;6131918;29;20583;-56
2021/01/27 16:09:16;;;;;;;19.97;8.37;;;6.80;43.50;;;;;;6131425;29;20488;-55
2021/01/27 16:12:19;;;;;;;9.20;6.93;;;6.70;43.60;;;;;;6131650;29;20476;-55
2021/01/27 16:15:23;;;;;;;17.43;5.83;;;6.60;43.70;;;;;;6131265;29;20809;-55
2021/01/27 16:18:25;;;;;;;8.37;4.90;;;6.60;44.10;;;;;;6131153;29;20490;-54